Time;durP1;ratioP1;P1;durP2;ratioP2;P2;SDS_P1;SDS_P2;PMS_P1;PMS_P2;Temp;Humidity;BMP_temperature;BMP_pressure;BME280_temperature;BME280_humidity;BME280_pressure;Samples;Min_cycle;Max_cycle;Signal;HPM_P1;HPM_P2
2023/04/24 00:01:26;;;;;;;15.98;9.85;;;;;;;11.58;47.83;93592.38;4975997;28;20030;-79
2023/04/24 00:03:52;;;;;;;10.88;9.25;;;;;;;11.63;48.26;93599.41;4975777;28;20037;-79
2023/04/24 00:06:17;;;;;;;15.30;9.98;;;;;;;11.43;47.35;93603.56;4978047;28;20049;-80
2023/04/24 00:08:43;;;;;;;18.85;10.38;;;;;;;11.20;47.64;93587.09;4975634;28;20796;-79
2023/04/24 00:11:09;;;;;;;11.38;9.38;;;;;;;11.61;47.91;93607.72;4975200;28;20152;-79
2023/04/24 00:13:35;;;;;;;11.60;9.60;;;;;;;11.41;47.84;93576.47;4977427;28;20077;-78
2023/04/24 00:16:00;;;;;;;12.82;10.25;;;;;;;11.47;47.77;93585.84;4974417;28;20588;-79
2023/04/24 00:18:26;;;;;;;15.65;9.50;;;;;;;11.55;47.36;93571.72;4972908;28;20034;-79
2023/04/24 00:20:51;;;;;;;9.95;8.95;;;;;;;11.57;47.38;93569.53;4965915;28;20447;-80
2023/04/24 00:23:17;;;;;;;13.18;9.23;;;;;;;11.66;47.48;93578.22;4976596;28;20046;-79
2023/04/24 00:25:42;;;;;;;11.52;9.73;;;;;;;11.63;46.85;93564.78;4975894;28;20034;-81
2023/04/24 00:28:08;;;;;;;12.27;8.90;;;;;;;11.73;46.94;93583.81;4973322;28;20046;-79
2023/04/24 00:30:33;;;;;;;12.25;9.35;;;;;;;11.47;47.28;93575.19;4976558;28;20029;-79
2023/04/24 00:32:58;;;;;;;12.63;10.02;;;;;;;11.50;47.43;93574.53;4976070;28;20113;-78
2023/04/24 00:35:24;;;;;;;11.00;8.90;;;;;;;11.63;47.92;93592.19;4976255;28;20039;-80
2023/04/24 00:37:50;;;;;;;12.05;9.13;;;;;;;11.58;47.74;93592.38;4971513;28;20037;-78
2023/04/24 00:40:15;;;;;;;11.95;9.55;;;;;;;11.35;47.65;93578.56;4973976;28;20042;-79
2023/04/24 00:42:40;;;;;;;12.18;9.38;;;;;;;11.36;47.39;93574.00;4973878;28;20042;-80
2023/04/24 00:45:07;;;;;;;13.40;9.82;;;;;;;11.56;46.96;93578.59;4975274;28;20022;-79
2023/04/24 00:47:33;;;;;;;10.85;9.75;;;;;;;11.57;48.50;93580.94;4975833;28;20104;-77
2023/04/24 00:50:01;;;;;;;13.13;9.45;;;;;;;11.62;47.36;93590.63;4971120;28;20038;-80
2023/04/24 00:52:28;;;;;;;11.43;9.32;;;;;;;11.40;47.46;93574.91;4974617;28;20031;-79
2023/04/24 00:54:53;;;;;;;10.63;9.23;;;;;;;11.60;47.43;93585.63;4972783;28;20050;-79
2023/04/24 00:57:19;;;;;;;13.30;9.20;;;;;;;11.51;46.91;93566.25;4973952;28;20022;-79
2023/04/24 00:59:45;;;;;;;9.55;8.52;;;;;;;11.57;46.62;93564.97;4973845;28;20416;-80
2023/04/24 01:02:11;;;;;;;13.85;9.50;;;;;;;11.74;47.18;93572.03;4991058;28;20319;-80
2023/04/24 01:04:37;;;;;;;17.85;10.00;;;;;;;11.74;46.99;93582.69;4975291;28;20064;-80
2023/04/24 01:07:04;;;;;;;10.68;9.55;;;;;;;11.71;49.27;93575.38;4966615;28;20049;-79
2023/04/24 01:09:29;;;;;;;16.20;10.48;;;;;;;11.65;49.05;93576.66;4972032;28;20029;-80
2023/04/24 01:11:56;;;;;;;10.15;9.07;;;;;;;11.56;50.12;93541.31;4967700;28;20026;-79
2023/04/24 01:14:22;;;;;;;10.73;9.55;;;;;;;11.65;50.91;93551.91;4973310;28;20673;-79
2023/04/24 01:16:47;;;;;;;16.55;11.13;;;;;;;11.29;51.16;93507.19;4971918;28;20504;-79
2023/04/24 01:19:16;;;;;;;15.57;11.43;;;;;;;11.65;52.78;93549.22;4976575;28;20034;-78
2023/04/24 01:21:43;;;;;;;12.07;10.80;;;;;;;11.41;53.96;93534.66;4975851;28;20042;-79
2023/04/24 01:24:10;;;;;;;16.20;10.40;;;;;;;11.52;53.59;93551.06;4976642;28;20688;-79
2023/04/24 01:26:35;;;;;;;16.23;12.18;;;;;;;11.57;54.15;93551.66;4975400;28;20129;-80
2023/04/24 01:29:01;;;;;;;14.52;10.35;;;;;;;11.69;53.79;93539.47;4974558;28;20869;-79
2023/04/24 01:31:27;;;;;;;13.98;11.70;;;;;;;11.64;54.25;93542.38;4972528;28;20034;-80
2023/04/24 01:33:52;;;;;;;13.48;10.88;;;;;;;11.53;54.50;93552.63;4976375;28;20517;-79
2023/04/24 01:36:19;;;;;;;16.38;11.45;;;;;;;11.61;53.85;93559.78;4973449;28;20030;-80
2023/04/24 01:38:44;;;;;;;16.52;12.30;;;;;;;11.44;54.14;93559.88;4991759;28;20026;-80
2023/04/24 01:41:10;;;;;;;14.05;11.38;;;;;;;11.55;53.49;93550.41;4974447;28;20035;-79
2023/04/24 01:43:35;;;;;;;14.57;11.52;;;;;;;11.40;53.79;93532.31;4974445;28;20604;-79
2023/04/24 01:46:01;;;;;;;12.93;10.85;;;;;;;11.44;53.93;93546.56;4975473;28;20149;-80
2023/04/24 01:48:26;;;;;;;11.75;10.35;;;;;;;11.06;54.88;93507.50;4975188;28;20412;-78
2023/04/24 01:50:52;;;;;;;11.10;9.73;;;;;;;11.04;55.34;93531.00;4974703;28;20026;-79
2023/04/24 01:53:18;;;;;;;13.00;11.05;;;;;;;11.07;55.46;93530.34;4972946;28;20041;-79
2023/04/24 01:55:43;;;;;;;14.02;10.32;;;;;;;11.25;55.47;93546.22;4975616;28;20035;-79
2023/04/24 01:58:09;;;;;;;13.48;10.88;;;;;;;11.10;55.28;93545.66;4975338;28;20035;-80
2023/04/24 02:00:34;;;;;;;15.57;10.75;;;;;;;10.92;55.04;93522.91;4978547;28;20377;-78
2023/04/24 02:03:01;;;;;;;16.10;11.82;;;;;;;11.02;55.69;93543.84;4977799;28;20022;-79
2023/04/24 02:05:27;;;;;;;13.10;9.82;;;;;;;10.81;56.18;93527.03;4979107;28;20412;-78
2023/04/24 02:07:52;;;;;;;10.90;9.65;;;;;;;10.86;55.75;93528.72;4977761;28;20859;-79
2023/04/24 02:10:18;;;;;;;14.98;9.02;;;;;;;10.83;55.14;93535.50;4973868;28;20038;-80
2023/04/24 02:12:43;;;;;;;13.00;9.77;;;;;;;10.86;55.64;93544.69;4978013;28;20045;-80
2023/04/24 02:15:09;;;;;;;14.13;9.85;;;;;;;10.70;54.86;93523.19;4976858;28;20484;-78
2023/04/24 02:17:34;;;;;;;13.55;9.77;;;;;;;10.84;54.73;93552.22;4976695;28;21894;-78
2023/04/24 02:20:00;;;;;;;13.02;9.00;;;;;;;10.79;54.70;93545.22;4977863;28;20041;-80
2023/04/24 02:22:25;;;;;;;12.63;9.68;;;;;;;10.70;54.32;93536.50;4974994;28;20096;-80
2023/04/24 02:24:51;;;;;;;13.80;9.35;;;;;;;10.61;55.13;93533.09;4977601;28;20513;-80
2023/04/24 02:27:16;;;;;;;9.85;8.88;;;;;;;10.43;55.56;93526.25;4976775;28;20022;-79
2023/04/24 02:29:41;;;;;;;8.27;7.47;;;;;;;10.58;55.43;93531.06;4975607;28;20369;-78
2023/04/24 02:32:11;;;;;;;9.02;8.18;;;;;;;10.47;55.31;93519.22;4979431;28;20062;-80
2023/04/24 02:34:36;;;;;;;12.75;8.68;;;;;;;10.39;55.04;93502.22;4974588;28;20540;-79
2023/04/24 02:37:04;;;;;;;10.38;9.02;;;;;;;10.28;55.15;93499.09;4978819;28;20141;-80
2023/04/24 02:39:30;;;;;;;14.23;9.82;;;;;;;10.37;55.22;93533.63;4976696;28;20022;-80
2023/04/24 02:41:55;;;;;;;10.55;8.88;;;;;;;10.41;55.11;93528.47;4978630;28;20503;-79
2023/04/24 02:44:21;;;;;;;12.65;9.98;;;;;;;10.38;54.35;93510.50;4976363;28;20112;-80
2023/04/24 02:46:46;;;;;;;11.70;9.38;;;;;;;10.42;55.07;93517.50;4975533;28;20080;-79
2023/04/24 02:49:12;;;;;;;12.45;9.27;;;;;;;10.26;54.92;93495.97;4976981;28;20035;-78
2023/04/24 02:51:40;;;;;;;14.13;10.48;;;;;;;10.38;55.19;93513.16;4977574;28;20503;-79
2023/04/24 02:54:06;;;;;;;12.73;9.77;;;;;;;10.23;54.93;93499.25;4976516;28;20369;-79
2023/04/24 02:56:31;;;;;;;12.93;9.40;;;;;;;10.26;54.50;93495.97;4986055;28;20039;-79
2023/04/24 02:58:57;;;;;;;10.75;9.05;;;;;;;10.44;54.72;93514.53;4976135;28;20049;-79
2023/04/24 03:01:22;;;;;;;10.40;8.93;;;;;;;10.30;54.74;93502.22;4976926;28;20126;-79
2023/04/24 03:03:48;;;;;;;12.35;9.38;;;;;;;10.46;55.12;93515.00;4976006;28;20042;-80
2023/04/24 03:06:13;;;;;;;12.45;9.65;;;;;;;10.53;54.65;93520.59;4979886;28;20121;-79
2023/04/24 03:08:38;;;;;;;9.30;8.23;;;;;;;10.37;55.15;93527.56;4975675;28;20050;-79
2023/04/24 03:11:04;;;;;;;11.48;8.30;;;;;;;10.37;54.63;93516.94;4974879;28;20551;-79
2023/04/24 03:13:29;;;;;;;11.52;8.52;;;;;;;10.13;55.33;93515.53;4973297;28;20331;-79
2023/04/24 03:15:55;;;;;;;11.40;8.90;;;;;;;10.08;55.31;93515.72;4975706;28;20921;-79
2023/04/24 03:18:20;;;;;;;11.27;9.35;;;;;;;10.12;55.66;93532.56;4976340;28;20037;-79
2023/04/24 03:20:47;;;;;;;10.15;8.68;;;;;;;10.13;55.49;93534.13;4977282;28;20022;-79
2023/04/24 03:23:12;;;;;;;13.10;8.45;;;;;;;10.19;55.38;93530.22;4974960;28;20030;-78
2023/04/24 03:25:38;;;;;;;13.43;9.30;;;;;;;10.10;55.75;93536.66;4976065;28;20030;-79
2023/04/24 03:28:04;;;;;;;10.80;9.57;;;;;;;10.08;55.29;93521.03;4975180;28;20754;-79
2023/04/24 03:30:30;;;;;;;14.00;8.95;;;;;;;10.06;55.56;93535.72;4977305;28;20150;-79
2023/04/24 03:32:55;;;;;;;10.18;8.98;;;;;;;9.86;55.74;93510.59;4977358;28;20662;-79
2023/04/24 03:35:21;;;;;;;11.93;9.18;;;;;;;10.16;55.52;93538.84;4975900;28;20034;-79
2023/04/24 03:37:47;;;;;;;11.43;9.35;;;;;;;10.01;55.61;93515.44;4971058;28;20040;-80
2023/04/24 03:40:12;;;;;;;10.93;9.18;;;;;;;9.89;55.97;93507.31;4975694;28;20030;-79
2023/04/24 03:42:38;;;;;;;14.27;9.23;;;;;;;9.93;56.46;93507.47;4974550;28;20038;-80
2023/04/24 03:45:03;;;;;;;12.07;9.60;;;;;;;10.00;56.42;93513.88;4973869;28;20023;-79
2023/04/24 03:47:29;;;;;;;10.93;9.05;;;;;;;9.94;56.38;93496.53;4988722;28;20734;-79
2023/04/24 03:49:55;;;;;;;14.38;10.40;;;;;;;10.25;56.27;93521.00;4972253;28;20081;-78
2023/04/24 03:52:21;;;;;;;11.23;8.95;;;;;;;10.11;55.95;93509.00;4963980;28;20031;-80
2023/04/24 03:54:46;;;;;;;13.10;10.23;;;;;;;10.25;56.21;93531.63;4973383;28;20041;-79
2023/04/24 03:57:11;;;;;;;13.55;9.27;;;;;;;10.26;56.20;93533.19;4975885;28;20034;-80
2023/04/24 03:59:37;;;;;;;14.02;9.65;;;;;;;10.32;54.73;93534.56;4974390;28;20042;-78
2023/04/24 04:02:02;;;;;;;12.02;9.98;;;;;;;10.49;54.56;93533.75;4975799;28;20031;-80
2023/04/24 04:04:28;;;;;;;15.10;9.32;;;;;;;10.38;54.69;93524.56;4975214;28;20427;-80
2023/04/24 04:06:53;;;;;;;12.23;9.52;;;;;;;10.44;55.15;93523.31;4972267;28;20116;-77
2023/04/24 04:09:19;;;;;;;15.25;10.32;;;;;;;10.44;54.31;93517.19;4972920;28;20041;-79
2023/04/24 04:11:44;;;;;;;10.20;9.07;;;;;;;10.64;53.01;93521.81;4975558;28;20488;-79
2023/04/24 04:14:09;;;;;;;13.98;9.30;;;;;;;10.61;54.23;93522.47;4974058;28;20050;-79
2023/04/24 04:16:36;;;;;;;14.32;9.55;;;;;;;10.67;53.34;93510.53;4973614;28;20591;-79
2023/04/24 04:19:02;;;;;;;12.32;10.00;;;;;;;10.85;53.91;93533.28;4974625;28;20035;-79
2023/04/24 04:21:28;;;;;;;15.90;9.63;;;;;;;10.72;53.97;93507.69;4971225;28;20030;-78
2023/04/24 04:23:54;;;;;;;10.88;9.73;;;;;;;10.76;53.25;93539.75;4974427;28;20364;-80
2023/04/24 04:26:20;;;;;;;11.23;9.35;;;;;;;10.76;52.94;93539.75;4974051;28;20853;-80
2023/04/24 04:28:47;;;;;;;13.85;9.05;;;;;;;10.98;53.18;93534.16;4976818;28;20124;-79
2023/04/24 04:31:13;;;;;;;14.45;10.40;;;;;;;10.92;52.97;93517.59;4972946;28;20525;-79
2023/04/24 04:33:39;;;;;;;11.02;8.88;;;;;;;11.00;52.39;93527.41;4974865;28;20042;-79
2023/04/24 04:36:04;;;;;;;12.05;9.70;;;;;;;11.09;50.98;93532.69;4974318;28;20474;-78
2023/04/24 04:38:30;;;;;;;15.40;10.23;;;;;;;11.18;50.80;93530.75;4977358;28;20035;-80
2023/04/24 04:40:58;;;;;;;10.20;8.90;;;;;;;11.23;50.30;93538.56;4974597;28;20502;-78
2023/04/24 04:43:24;;;;;;;14.05;9.75;;;;;;;11.07;50.64;93537.53;4973539;28;20057;-79
2023/04/24 04:45:51;;;;;;;14.60;10.00;;;;;;;11.18;50.56;93568.81;4972086;28;20038;-79
2023/04/24 04:48:18;;;;;;;23.20;10.32;;;;;;;11.17;50.92;93561.91;4973010;28;20037;-78
2023/04/24 04:50:43;;;;;;;16.42;9.95;;;;;;;11.17;50.37;93564.56;4975775;28;20057;-80
2023/04/24 04:53:12;;;;;;;12.93;9.27;;;;;;;11.02;50.24;93521.75;4972555;28;20042;-79
2023/04/24 04:55:37;;;;;;;18.05;10.60;;;;;;;11.15;50.95;93558.00;4975172;28;20034;-79
2023/04/24 04:58:03;;;;;;;24.02;9.90;;;;;;;11.24;50.89;93565.97;4973806;28;20080;-80
2023/04/24 05:00:33;;;;;;;19.95;10.60;;;;;;;11.16;51.60;93563.00;4975089;28;20108;-80
2023/04/24 05:02:59;;;;;;;17.55;10.38;;;;;;;11.04;51.74;93552.28;4977371;28;20030;-81
2023/04/24 05:05:24;;;;;;;15.43;12.55;;;;;;;11.23;51.81;93561.72;4975831;28;21116;-79
2023/04/24 05:07:49;;;;;;;16.10;11.48;;;;;;;11.16;51.50;93549.69;4975689;28;20441;-80
2023/04/24 05:10:15;;;;;;;14.90;11.52;;;;;;;11.15;51.04;93536.72;4975181;28;20133;-80
2023/04/24 05:12:40;;;;;;;14.73;10.38;;;;;;;11.06;51.46;93544.75;4975557;28;20046;-80
2023/04/24 05:15:06;;;;;;;12.48;10.38;;;;;;;11.26;51.32;93563.72;4973777;28;20037;-80
2023/04/24 05:17:32;;;;;;;15.88;10.70;;;;;;;11.21;51.73;93553.28;4976258;28;20088;-80
2023/04/24 05:19:57;;;;;;;12.88;10.18;;;;;;;11.34;49.97;93552.28;4975349;28;20317;-80
2023/04/24 05:22:23;;;;;;;12.02;8.82;;;;;;;11.34;49.65;93571.69;4976409;28;20528;-80
2023/04/24 05:24:49;;;;;;;13.35;10.07;;;;;;;11.29;49.24;93531.16;4989118;28;20127;-78
2023/04/24 05:27:15;;;;;;;13.15;9.85;;;;;;;11.22;49.62;93533.53;4975188;28;20500;-78
2023/04/24 05:29:40;;;;;;;15.85;9.88;;;;;;;11.37;49.92;93571.03;4989150;28;20367;-79
2023/04/24 05:32:06;;;;;;;18.45;10.60;;;;;;;11.39;49.80;93568.06;4971007;28;20084;-79
2023/04/24 05:34:31;;;;;;;21.92;11.95;;;;;;;11.21;49.69;93554.06;4979236;28;20491;-80
2023/04/24 05:36:57;;;;;;;17.00;11.45;;;;;;;11.40;49.53;93564.25;4978346;28;20097;-80
2023/04/24 05:39:24;;;;;;;14.95;11.02;;;;;;;11.53;49.87;93557.97;4976663;28;20429;-80
2023/04/24 05:41:50;;;;;;;22.35;11.85;;;;;;;11.56;49.21;93562.63;4976831;28;20068;-79
2023/04/24 05:44:15;;;;;;;15.20;11.98;;;;;;;11.50;48.74;93569.22;4977478;28;21537;-79
2023/04/24 05:46:41;;;;;;;18.23;11.70;;;;;;;11.26;49.62;93558.41;4977528;28;20030;-80
2023/04/24 05:49:06;;;;;;;19.48;12.98;;;;;;;11.22;50.65;93547.63;4991428;28;20058;-79
2023/04/24 05:51:32;;;;;;;19.33;11.25;;;;;;;11.54;49.23;93564.84;4978311;28;20146;-79
2023/04/24 05:53:57;;;;;;;15.43;11.45;;;;;;;11.76;49.15;93566.41;4991564;28;20932;-77
2023/04/24 05:56:23;;;;;;;17.60;11.65;;;;;;;11.88;48.36;93558.47;4976149;28;20031;-78
2023/04/24 05:58:48;;;;;;;20.05;10.95;;;;;;;11.85;48.36;93541.25;4977538;28;20140;-77
2023/04/24 06:01:14;;;;;;;22.40;11.27;;;;;;;11.74;48.63;93558.72;4978010;28;20041;-80
2023/04/24 06:03:41;;;;;;;18.17;10.65;;;;;;;11.66;49.32;93545.47;4976324;28;20404;-80
2023/04/24 06:06:07;;;;;;;18.77;10.43;;;;;;;11.54;49.17;93559.53;4977839;28;20200;-79
2023/04/24 06:08:32;;;;;;;16.63;10.48;;;;;;;11.52;49.34;93546.53;4977115;28;20039;-78
2023/04/24 06:10:58;;;;;;;16.40;10.82;;;;;;;11.85;48.44;93549.22;4977478;28;20840;-80
2023/04/24 06:13:23;;;;;;;18.15;9.63;;;;;;;12.29;47.00;93557.59;4977602;28;20042;-78
2023/04/24 06:15:49;;;;;;;12.57;9.88;;;;;;;11.98;48.21;93556.16;4976144;28;20039;-79
2023/04/24 06:18:14;;;;;;;15.55;9.32;;;;;;;12.12;47.17;93544.44;4973588;28;20031;-77
2023/04/24 06:20:42;;;;;;;17.75;10.35;;;;;;;12.00;47.08;93561.94;4977939;28;20068;-79
2023/04/24 06:23:07;;;;;;;13.02;9.38;;;;;;;11.84;47.70;93563.66;4978175;28;20034;-80
2023/04/24 06:25:32;;;;;;;18.15;9.55;;;;;;;12.38;46.63;93567.06;4975077;28;20089;-80
2023/04/24 06:27:58;;;;;;;12.60;9.95;;;;;;;12.37;45.70;93530.09;4978086;28;20043;-79
2023/04/24 06:30:23;;;;;;;13.20;9.18;;;;;;;12.72;44.91;93544.59;4980054;28;20058;-78
2023/04/24 06:32:50;;;;;;;17.95;9.48;;;;;;;12.89;45.91;93549.72;4977460;28;20109;-79
2023/04/24 06:35:16;;;;;;;14.27;8.93;;;;;;;12.76;46.14;93558.81;4976624;28;20065;-80
2023/04/24 06:37:42;;;;;;;11.68;8.43;;;;;;;12.89;44.95;93547.06;4978674;28;20096;-79
2023/04/24 06:40:08;;;;;;;28.65;9.32;;;;;;;12.68;45.12;93559.72;4976837;28;20038;-78
2023/04/24 06:42:34;;;;;;;13.52;8.75;;;;;;;12.70;45.17;93565.50;4976073;28;20041;-78
2023/04/24 06:45:00;;;;;;;12.15;8.23;;;;;;;13.12;44.71;93562.63;4979526;28;20115;-80
2023/04/24 06:47:25;;;;;;;12.20;8.88;;;;;;;13.10;44.42;93546.19;4979548;28;20046;-80
2023/04/24 06:49:52;;;;;;;13.40;10.05;;;;;;;13.17;43.68;93555.16;4978251;28;20042;-80
2023/04/24 06:52:18;;;;;;;14.48;9.60;;;;;;;13.41;43.93;93569.59;4968008;28;20479;-80
2023/04/24 06:54:43;;;;;;;10.52;8.85;;;;;;;13.52;43.94;93558.13;4970186;28;20501;-80
2023/04/24 06:57:10;;;;;;;15.75;9.38;;;;;;;13.72;43.03;93553.78;4977959;28;20030;-80
2023/04/24 06:59:36;;;;;;;14.25;9.63;;;;;;;13.50;43.06;93556.91;4976056;28;21169;-79
2023/04/24 07:02:01;;;;;;;12.15;9.07;;;;;;;13.45;43.80;93552.56;4975173;28;20034;-80
2023/04/24 07:04:26;;;;;;;19.25;11.15;;;;;;;13.91;42.49;93553.16;4974212;28;20045;-80
2023/04/24 07:06:55;;;;;;;14.57;9.95;;;;;;;13.30;43.65;93534.56;4972743;28;20039;-79
2023/04/24 07:09:21;;;;;;;12.98;8.88;;;;;;;13.50;44.09;93557.69;4975609;28;20150;-79
2023/04/24 07:11:48;;;;;;;13.73;9.38;;;;;;;13.29;44.46;93539.16;4975917;28;20022;-77
2023/04/24 07:14:13;;;;;;;19.35;10.48;;;;;;;13.17;45.29;93549.03;4989685;28;20405;-81
2023/04/24 07:16:39;;;;;;;15.80;9.75;;;;;;;13.55;44.05;93541.41;4972081;28;20094;-79
2023/04/24 07:19:05;;;;;;;16.08;10.18;;;;;;;13.67;44.07;93546.78;4974499;28;20519;-78
2023/04/24 07:21:31;;;;;;;11.18;8.90;;;;;;;13.75;43.49;93540.50;4976260;28;20467;-80
2023/04/24 07:23:57;;;;;;;13.35;9.18;;;;;;;13.23;43.69;93518.34;4973711;28;20032;-79
2023/04/24 07:26:23;;;;;;;11.60;6.75;;;;;;;12.92;44.06;93504.78;4971867;28;20121;-80
2023/04/24 07:28:48;;;;;;;9.68;7.28;;;;;;;13.13;44.39;93527.59;4971171;28;20660;-80
2023/04/24 07:31:14;;;;;;;9.70;6.75;;;;;;;13.60;43.69;93498.47;4971727;28;20837;-79
2023/04/24 07:33:39;;;;;;;8.35;6.15;;;;;;;13.73;42.81;93508.00;4976173;28;20097;-80
2023/04/24 07:36:05;;;;;;;10.55;7.28;;;;;;;13.55;43.91;93533.41;4978243;28;20033;-80
2023/04/24 07:38:31;;;;;;;10.60;7.72;;;;;;;13.48;44.59;93527.88;4976666;28;20045;-79
2023/04/24 07:40:56;;;;;;;15.70;9.48;;;;;;;13.46;44.11;93522.06;4986853;28;20042;-79
2023/04/24 07:43:23;;;;;;;22.75;10.20;;;;;;;13.28;44.02;93512.78;4975313;28;20655;-79
2023/04/24 07:45:49;;;;;;;13.90;10.10;;;;;;;13.45;43.50;93533.88;4973968;28;20527;-79
2023/04/24 07:48:17;;;;;;;13.70;8.95;;;;;;;13.16;44.75;93520.78;4973384;28;20503;-79
2023/04/24 07:50:43;;;;;;;11.40;8.82;;;;;;;13.26;44.35;93520.31;4973476;28;20544;-79
2023/04/24 07:53:08;;;;;;;13.95;8.85;;;;;;;13.56;43.43;93507.47;4975676;28;20045;-79
2023/04/24 07:55:34;;;;;;;13.52;8.68;;;;;;;13.32;44.16;93508.31;4973032;28;20038;-79
2023/04/24 07:58:00;;;;;;;13.85;9.18;;;;;;;13.74;43.79;93509.53;4975282;28;20038;-80
2023/04/24 08:00:25;;;;;;;12.70;8.45;;;;;;;13.77;43.65;93504.66;4973268;28;20586;-79
2023/04/24 08:02:51;;;;;;;12.10;8.52;;;;;;;13.71;43.57;93514.81;4985035;28;20161;-79
2023/04/24 08:05:16;;;;;;;15.30;9.60;;;;;;;13.45;45.00;93506.38;4968845;28;20607;-80
2023/04/24 08:07:42;;;;;;;16.15;10.00;;;;;;;13.30;44.62;93518.53;4975049;28;20034;-79
2023/04/24 08:10:10;;;;;;;13.82;9.88;;;;;;;13.03;44.77;93512.03;4973368;28;20527;-80
2023/04/24 08:12:36;;;;;;;15.43;9.40;;;;;;;13.10;45.03;93506.91;4987320;28;20434;-80
2023/04/24 08:15:02;;;;;;;11.05;8.90;;;;;;;12.85;45.22;93492.03;4971874;28;20037;-77
2023/04/24 08:17:27;;;;;;;11.10;9.43;;;;;;;13.17;44.17;93512.44;4975089;28;20029;-80
2023/04/24 08:19:58;;;;;;;10.93;8.52;;;;;;;13.09;44.86;93515.25;4973979;28;20042;-79
2023/04/24 08:22:24;;;;;;;16.98;9.68;;;;;;;13.16;44.50;93497.53;4989592;28;20165;-79
2023/04/24 08:24:49;;;;;;;17.02;9.27;;;;;;;13.82;44.00;93509.75;4972635;28;20035;-80
2023/04/24 08:27:15;;;;;;;15.40;8.27;;;;;;;14.24;43.46;93502.88;4973312;28;20151;-79
2023/04/24 08:29:40;;;;;;;17.80;9.70;;;;;;;13.93;43.58;93502.81;4971351;28;20469;-80
2023/04/24 08:32:06;;;;;;;19.80;11.43;;;;;;;13.58;44.41;93490.00;4972323;28;20109;-79
2023/04/24 08:34:31;;;;;;;14.88;10.68;;;;;;;13.58;43.80;93499.91;4975316;28;20434;-79
2023/04/24 08:36:57;;;;;;;12.18;9.20;;;;;;;13.77;44.07;93499.31;4987454;28;20084;-79
2023/04/24 08:39:22;;;;;;;11.85;9.23;;;;;;;13.93;43.30;93505.50;4974610;28;20026;-79
2023/04/24 08:41:48;;;;;;;20.60;9.98;;;;;;;14.01;43.67;93491.97;4973332;28;20035;-79
2023/04/24 08:44:15;;;;;;;12.07;9.15;;;;;;;13.77;42.83;93477.94;4972633;28;20110;-80
2023/04/24 08:46:43;;;;;;;14.75;9.05;;;;;;;13.93;43.12;93476.88;4972024;28;20045;-79
2023/04/24 08:49:09;;;;;;;12.27;9.07;;;;;;;14.07;42.53;93479.13;4974920;28;20501;-80
2023/04/24 08:51:36;;;;;;;13.40;9.05;;;;;;;14.05;42.53;93462.63;4970115;28;20093;-78
2023/04/24 08:54:03;;;;;;;11.52;9.05;;;;;;;13.78;43.27;93476.81;4969503;28;20014;-80
2023/04/24 08:56:30;;;;;;;17.15;9.23;;;;;;;14.19;42.71;93461.09;4967409;28;20039;-80
2023/04/24 08:58:57;;;;;;;14.52;8.93;;;;;;;13.87;43.45;93477.44;4967543;28;20057;-78
2023/04/24 09:01:25;;;;;;;14.80;8.30;;;;;;;13.99;43.80;93469.34;4974248;28;20538;-79
2023/04/24 09:03:53;;;;;;;14.75;9.50;;;;;;;13.89;42.99;93432.41;4973509;28;20030;-79
2023/04/24 09:06:22;;;;;;;9.68;7.53;;;;;;;13.80;43.01;93461.97;4975809;28;20034;-80
2023/04/24 09:08:53;;;;;;;13.50;8.60;;;;;;;14.07;42.46;93447.03;4975456;28;20096;-78
2023/04/24 09:11:18;;;;;;;22.60;8.85;;;;;;;13.85;42.90;93443.03;4976097;28;20042;-80
2023/04/24 09:13:45;;;;;;;11.30;8.75;;;;;;;14.03;43.22;93459.53;4976010;28;20524;-79
2023/04/24 09:16:10;;;;;;;10.15;9.07;;;;;;;14.19;43.55;93441.59;4978203;28;20493;-80
2023/04/24 09:18:36;;;;;;;14.65;7.20;;;;;;;14.19;43.36;93449.63;4977692;28;21116;-78
2023/04/24 09:21:04;;;;;;;18.75;8.95;;;;;;;14.42;43.32;93450.59;4976296;28;20041;-80
2023/04/24 09:23:31;;;;;;;13.13;8.90;;;;;;;14.73;45.68;93430.31;4974856;28;20116;-80
2023/04/24 09:25:58;;;;;;;11.60;9.05;;;;;;;14.64;42.24;93419.00;4966556;28;20218;-80
2023/04/24 09:28:29;;;;;;;10.98;8.20;;;;;;;14.82;44.27;93436.25;4975636;28;20038;-80
2023/04/24 09:31:04;;;;;;;14.77;8.30;;;;;;;14.73;42.49;93435.66;4976129;28;20817;-79
2023/04/24 09:33:29;;;;;;;12.98;8.30;;;;;;;14.46;42.18;93411.34;4978686;28;20038;-81
2023/04/24 09:35:55;;;;;;;17.70;9.32;;;;;;;14.64;42.94;93421.69;4979046;28;20052;-80
2023/04/24 09:38:31;;;;;;;15.25;8.63;;;;;;;14.85;42.19;93431.00;4979628;28;20050;-80
2023/04/24 09:41:00;;;;;;;17.08;8.32;;;;;;;14.59;41.68;93422.72;4976380;28;20038;-80
2023/04/24 09:43:26;;;;;;;15.27;8.85;;;;;;;14.19;42.77;93410.28;4976995;28;20137;-80
2023/04/24 09:45:56;;;;;;;14.68;8.48;;;;;;;14.36;42.36;93422.56;4967772;28;20113;-80
2023/04/24 09:48:36;;;;;;;13.10;8.57;;;;;;;14.86;43.05;93419.13;4969925;28;20105;-80
2023/04/24 09:51:03;;;;;;;12.43;8.98;;;;;;;15.41;42.58;93423.38;4978841;28;20026;-80
2023/04/24 09:53:30;;;;;;;8.93;7.20;;;;;;;15.51;41.36;93415.94;4979167;28;20030;-81
2023/04/24 09:56:02;;;;;;;14.55;8.27;;;;;;;15.57;40.85;93401.13;4971877;28;20484;-81
2023/04/24 09:58:28;;;;;;;11.32;7.30;;;;;;;15.68;40.52;93418.19;4975380;28;20038;-81
2023/04/24 10:00:55;;;;;;;12.07;7.50;;;;;;;15.23;41.11;93416.88;4976012;28;20096;-80
2023/04/24 10:03:21;;;;;;;9.95;7.45;;;;;;;15.51;40.15;93410.56;4976198;28;20109;-81
2023/04/24 10:05:47;;;;;;;16.05;7.15;;;;;;;15.97;39.25;93401.50;4979077;28;20022;-80
2023/04/24 10:08:13;;;;;;;23.25;7.93;;;;;;;15.48;40.09;93382.59;4979533;28;20049;-78
2023/04/24 10:10:42;;;;;;;15.05;6.97;;;;;;;15.62;44.22;93390.91;4977171;28;20038;-80
2023/04/24 10:13:10;;;;;;;13.18;7.22;;;;;;;15.39;41.64;93379.31;4977716;28;20141;-80
2023/04/24 10:15:38;;;;;;;8.57;6.90;;;;;;;15.67;40.04;93365.72;4979319;28;20053;-80
2023/04/24 10:18:06;;;;;;;8.60;6.72;;;;;;;15.72;39.63;93371.56;4995234;28;20025;-81
2023/04/24 10:20:32;;;;;;;12.13;6.53;;;;;;;15.85;39.23;93361.44;4978253;28;20033;-81
2023/04/24 10:22:58;;;;;;;8.07;5.82;;;;;;;15.89;40.92;93357.69;4975044;28;20042;-81
2023/04/24 10:25:27;;;;;;;11.48;6.05;;;;;;;16.13;37.80;93351.22;4977204;28;20080;-80
2023/04/24 10:27:57;;;;;;;8.60;5.95;;;;;;;16.21;39.12;93362.81;4974057;28;20050;-80
2023/04/24 10:30:23;;;;;;;7.90;5.78;;;;;;;16.17;38.62;93353.94;4976122;28;20500;-80
2023/04/24 10:32:48;;;;;;;6.90;5.55;;;;;;;15.96;39.45;93338.25;4976538;28;20503;-80
2023/04/24 10:35:15;;;;;;;9.82;5.82;;;;;;;15.95;38.59;93352.03;4977113;28;20043;-80
2023/04/24 10:37:57;;;;;;;12.48;6.15;;;;;;;15.95;39.28;93339.38;4976260;28;20042;-80
2023/04/24 10:40:30;;;;;;;8.57;5.68;;;;;;;15.94;38.39;93342.44;4978224;28;20031;-77
2023/04/24 10:42:56;;;;;;;9.15;6.13;;;;;;;16.00;38.74;93341.78;4976448;28;20369;-80
2023/04/24 10:45:23;;;;;;;8.73;5.55;;;;;;;16.19;37.94;93330.19;4977884;28;20444;-80
2023/04/24 10:48:14;;;;;;;8.00;5.15;;;;;;;16.55;36.96;93342.28;4977904;28;20145;-79
2023/04/24 10:50:47;;;;;;;17.10;6.57;;;;;;;16.62;37.11;93332.41;4969885;28;20058;-80
2023/04/24 10:53:23;;;;;;;6.72;4.85;;;;;;;16.52;37.64;93310.81;4989871;28;20485;-80
2023/04/24 10:55:56;;;;;;;7.53;5.30;;;;;;;17.02;37.94;93331.81;4972596;28;20129;-80
2023/04/24 10:58:23;;;;;;;12.57;5.35;;;;;;;17.10;36.26;93328.09;4968779;28;20323;-80
2023/04/24 11:00:59;;;;;;;8.05;5.45;;;;;;;16.94;35.73;93324.81;4970205;28;20042;-79
2023/04/24 11:03:29;;;;;;;7.03;4.15;;;;;;;17.07;36.23;93317.28;4968683;28;20033;-81
2023/04/24 11:05:58;;;;;;;6.25;4.68;;;;;;;16.97;34.62;93323.28;4968533;28;20022;-79
2023/04/24 11:08:26;;;;;;;7.10;5.00;;;;;;;17.50;34.03;93326.66;4962174;28;20136;-79
2023/04/24 11:10:59;;;;;;;8.80;4.45;;;;;;;17.57;34.91;93327.50;4967525;28;20133;-82
2023/04/24 11:13:48;;;;;;;8.90;4.78;;;;;;;17.70;34.64;93311.88;4968062;28;20066;-78
2023/04/24 11:16:34;;;;;;;8.15;4.50;;;;;;;17.92;36.08;93315.53;4984029;28;20463;-80
2023/04/24 11:19:16;;;;;;;5.28;3.72;;;;;;;18.18;32.41;93334.25;4961662;28;20065;-81
2023/04/24 11:21:45;;;;;;;4.85;4.30;;;;;;;17.90;34.21;93336.66;4982061;28;20045;-78